Time;durP1;ratioP1;P1;durP2;ratioP2;P2;SDS_P1;SDS_P2;PMS_P1;PMS_P2;Temp;Humidity;BMP_temperature;BMP_pressure;BME280_temperature;BME280_humidity;BME280_pressure;Samples;Min_cycle;Max_cycle;Signal;HPM_P1;HPM_P2
2023/02/05 00:00:19;;;;;;;11.18;4.15;;;-1.70;99.90;;;;;;2622185;46;20027;31
2023/02/05 00:02:54;;;;;;;12.52;5.07;;;-1.70;99.90;;;;;;2603819;54;20032;31
2023/02/05 00:05:28;;;;;;;14.65;5.45;;;-1.70;99.90;;;;;;2622390;46;20033;31
2023/02/05 00:08:02;;;;;;;11.55;3.65;;;-1.70;99.90;;;;;;2603833;54;20089;31
2023/02/05 00:10:37;;;;;;;10.05;3.47;;;-1.70;99.90;;;;;;2603876;54;20046;31
2023/02/05 00:13:12;;;;;;;16.10;5.90;;;-1.60;99.90;;;;;;2622102;46;20103;31
2023/02/05 00:15:49;;;;;;;15.38;5.25;;;-1.70;99.90;;;;;;2603735;54;20907;31
2023/02/05 00:18:24;;;;;;;14.47;5.23;;;-1.70;99.90;;;;;;2603537;54;20026;31
2023/02/05 00:20:59;;;;;;;11.95;3.67;;;-1.80;99.90;;;;;;2603579;54;20031;31
2023/02/05 00:23:35;;;;;;;11.23;3.55;;;-1.80;99.90;;;;;;2603767;54;20026;31
2023/02/05 00:26:09;;;;;;;14.45;4.50;;;-1.80;99.90;;;;;;2603774;54;20035;31
2023/02/05 00:28:44;;;;;;;13.05;4.45;;;-1.80;99.90;;;;;;2604052;54;20038;31
2023/02/05 00:31:22;;;;;;;9.67;4.03;;;-1.90;99.90;;;;;;2621800;46;20898;31
2023/02/05 00:33:58;;;;;;;14.85;5.00;;;-1.90;99.90;;;;;;2603537;54;20246;31
2023/02/05 00:36:33;;;;;;;15.60;4.88;;;-1.90;99.90;;;;;;2603546;54;20139;31
2023/02/05 00:39:05;;;;;;;10.50;4.40;;;-1.90;99.90;;;;;;2603564;54;20022;31
2023/02/05 00:41:40;;;;;;;9.23;3.70;;;-1.90;99.90;;;;;;2622103;46;20033;31
2023/02/05 00:44:15;;;;;;;13.73;4.18;;;-1.90;99.90;;;;;;2603511;54;20791;31
2023/02/05 00:46:53;;;;;;;15.68;4.70;;;-1.90;99.90;;;;;;2603587;54;20817;31
2023/02/05 00:49:28;;;;;;;11.57;4.13;;;-1.90;99.90;;;;;;2622005;46;20033;31
2023/02/05 00:52:03;;;;;;;14.00;4.45;;;-2.00;99.90;;;;;;2603488;54;20038;31
2023/02/05 00:54:38;;;;;;;8.97;3.07;;;-2.00;99.90;;;;;;2622065;46;20124;31
2023/02/05 00:57:13;;;;;;;11.68;3.60;;;-2.00;99.90;;;;;;2603537;54;20072;31
2023/02/05 00:59:48;;;;;;;10.05;3.20;;;-2.00;99.90;;;;;;2603460;54;20980;31
2023/02/05 01:02:29;;;;;;;9.80;4.18;;;-2.00;99.90;;;;;;2621884;46;20052;31
2023/02/05 01:05:04;;;;;;;7.80;3.35;;;-2.00;99.90;;;;;;2603381;54;20034;31
2023/02/05 01:07:39;;;;;;;10.30;3.90;;;-2.00;99.90;;;;;;2621722;46;20911;31
2023/02/05 01:10:14;;;;;;;12.50;3.80;;;-1.90;99.90;;;;;;2603772;54;20168;31
2023/02/05 01:12:48;;;;;;;11.57;4.22;;;-1.90;99.90;;;;;;2603461;54;20050;31
2023/02/05 01:15:22;;;;;;;11.98;4.35;;;-2.00;99.90;;;;;;2603607;54;20893;31
2023/02/05 01:18:04;;;;;;;9.65;3.72;;;-2.00;99.90;;;;;;2603722;54;20030;31
2023/02/05 01:20:39;;;;;;;8.60;4.10;;;-2.00;99.90;;;;;;2603418;54;20029;31
2023/02/05 01:23:14;;;;;;;9.65;4.10;;;-2.00;99.90;;;;;;2603473;54;20949;31
2023/02/05 01:25:49;;;;;;;7.30;4.00;;;-2.00;99.90;;;;;;2603552;54;20026;31
2023/02/05 01:28:23;;;;;;;14.93;4.50;;;-2.00;99.90;;;;;;2621842;46;20803;31
2023/02/05 01:30:58;;;;;;;11.00;3.58;;;-2.00;99.90;;;;;;2621818;46;20624;31
2023/02/05 01:33:37;;;;;;;10.35;4.22;;;-2.00;99.90;;;;;;2603400;54;20756;31
2023/02/05 01:36:11;;;;;;;8.50;4.00;;;-2.10;99.90;;;;;;2603344;54;20093;31
2023/02/05 01:38:47;;;;;;;13.23;4.50;;;-2.10;99.90;;;;;;2603352;54;20066;31
2023/02/05 01:41:23;;;;;;;8.55;3.47;;;-2.10;99.90;;;;;;2603490;54;20027;31
2023/02/05 01:44:10;;;;;;;11.93;4.25;;;-2.10;99.90;;;;;;2603251;54;20061;31
2023/02/05 01:46:45;;;;;;;8.85;3.95;;;-2.10;99.90;;;;;;2603300;54;20030;31
2023/02/05 01:49:27;;;;;;;7.82;3.00;;;-2.10;99.90;;;;;;2603311;54;20759;31
2023/02/05 01:52:01;;;;;;;10.70;3.43;;;-2.10;99.90;;;;;;2603450;54;20904;31
2023/02/05 01:54:36;;;;;;;10.50;4.15;;;-2.10;99.90;;;;;;2603483;54;20332;31
2023/02/05 01:57:13;;;;;;;9.95;3.40;;;-2.10;99.90;;;;;;2621697;46;20050;31
2023/02/05 01:59:48;;;;;;;12.02;4.15;;;-2.10;99.90;;;;;;2621944;46;20026;31
2023/02/05 02:02:22;;;;;;;12.18;4.38;;;-2.20;99.90;;;;;;2603503;54;20029;31
2023/02/05 02:05:01;;;;;;;7.22;3.42;;;-2.10;99.90;;;;;;2603116;54;20038;31
2023/02/05 02:07:35;;;;;;;9.27;3.55;;;-2.10;99.90;;;;;;2621518;46;20043;31
2023/02/05 02:10:11;;;;;;;10.20;3.63;;;-2.10;99.90;;;;;;2621696;46;20089;31
2023/02/05 02:12:45;;;;;;;7.32;4.10;;;-2.10;99.90;;;;;;2621895;46;20038;31
2023/02/05 02:15:21;;;;;;;11.25;3.42;;;-2.10;99.90;;;;;;2603299;54;20092;31
2023/02/05 02:18:24;;;;;;;;;;;-2.10;99.90;;;;;;2603464;54;20604;31
2023/02/05 02:21:00;;;;;;;7.15;3.08;;;-2.10;99.90;;;;;;2621941;46;20001;31
2023/02/05 02:23:38;;;;;;;7.73;3.57;;;-2.10;99.90;;;;;;2603197;54;20875;31
2023/02/05 02:26:26;;;;;;;9.73;3.85;;;-2.10;99.90;;;;;;2603266;54;21106;31
2023/02/05 02:29:04;;;;;;;9.50;3.90;;;-2.10;99.90;;;;;;2603374;54;20030;31
2023/02/05 02:31:41;;;;;;;8.00;4.00;;;-2.00;99.90;;;;;;2603301;54;20272;31
2023/02/05 02:34:18;;;;;;;10.85;3.70;;;-2.00;99.90;;;;;;2701510;39;20485;31
2023/02/05 02:36:56;;;;;;;7.00;3.58;;;-2.00;99.90;;;;;;2603091;54;20903;31
2023/02/05 02:39:33;;;;;;;8.90;3.92;;;-2.10;99.90;;;;;;2603163;54;20863;31
2023/02/05 02:42:10;;;;;;;9.45;3.28;;;-2.10;99.90;;;;;;2603373;54;20759;31
2023/02/05 02:44:50;;;;;;;10.45;3.20;;;-2.10;99.90;;;;;;2603154;54;20907;31
2023/02/05 02:47:22;;;;;;;9.77;4.05;;;-2.10;99.90;;;;;;2603270;54;20955;31
2023/02/05 02:50:09;;;;;;;7.80;3.72;;;-2.10;99.90;;;;;;2603062;54;20056;31
2023/02/05 02:52:45;;;;;;;11.55;3.95;;;-2.10;99.90;;;;;;2621460;46;20995;31
2023/02/05 02:55:20;;;;;;;7.87;3.07;;;-2.20;99.90;;;;;;2603181;54;20894;31
2023/02/05 02:57:56;;;;;;;8.10;3.53;;;-2.20;99.90;;;;;;2621321;46;20915;31
2023/02/05 03:00:33;;;;;;;9.15;3.35;;;-2.20;99.90;;;;;;2603079;54;20160;31
2023/02/05 03:03:08;;;;;;;8.65;3.85;;;-2.30;99.90;;;;;;2603190;54;20034;31
2023/02/05 03:05:43;;;;;;;9.38;4.05;;;-2.30;99.90;;;;;;2602952;54;20048;31
2023/02/05 03:08:21;;;;;;;5.90;3.45;;;-2.30;99.90;;;;;;2603004;54;20046;31
2023/02/05 03:10:57;;;;;;;6.82;3.75;;;-2.30;99.90;;;;;;2621483;47;20038;31
2023/02/05 03:13:31;;;;;;;10.25;3.90;;;-2.30;99.90;;;;;;2603160;54;19934;31
2023/02/05 03:16:11;;;;;;;8.70;4.20;;;-2.30;99.90;;;;;;2602944;54;20093;31
2023/02/05 03:18:46;;;;;;;12.25;4.00;;;-2.30;99.90;;;;;;2702229;39;20486;31
2023/02/05 03:21:22;;;;;;;8.70;4.18;;;-2.30;99.90;;;;;;2603663;54;20027;31
2023/02/05 03:23:57;;;;;;;8.20;4.13;;;-2.30;99.90;;;;;;2622547;46;20027;31
2023/02/05 03:26:33;;;;;;;13.77;4.47;;;-2.30;99.90;;;;;;2702250;39;21505;31
2023/02/05 03:29:23;;;;;;;9.10;3.90;;;-2.30;99.90;;;;;;2603668;54;20770;31
2023/02/05 03:32:05;;;;;;;7.47;4.25;;;-2.30;99.90;;;;;;2604035;54;20830;31
2023/02/05 03:34:46;;;;;;;10.50;4.60;;;-2.30;99.90;;;;;;2603945;54;20744;31
2023/02/05 03:37:23;;;;;;;8.37;4.33;;;-2.30;99.90;;;;;;2603723;54;20022;31
2023/02/05 03:40:03;;;;;;;12.85;5.60;;;-2.30;99.90;;;;;;2603723;54;20041;31
2023/02/05 03:42:42;;;;;;;12.60;5.70;;;-2.30;99.90;;;;;;2603627;54;20239;31
2023/02/05 03:45:24;;;;;;;12.00;5.80;;;-2.30;99.90;;;;;;2603763;54;20038;31
2023/02/05 03:48:15;;;;;;;11.88;5.60;;;-2.30;99.90;;;;;;2603633;54;20105;31
2023/02/05 03:50:53;;;;;;;10.70;5.68;;;-2.30;99.90;;;;;;2603951;54;20022;31
2023/02/05 03:53:34;;;;;;;11.55;5.80;;;-2.30;99.90;;;;;;2603821;54;20172;31
2023/02/05 03:56:10;;;;;;;9.00;5.38;;;-2.30;99.90;;;;;;2622016;46;20863;31
2023/02/05 03:58:48;;;;;;;9.55;4.88;;;-2.40;99.90;;;;;;2702418;39;22362;31
2023/02/05 04:01:24;;;;;;;12.65;5.70;;;-2.40;99.90;;;;;;2603452;54;20097;31
2023/02/05 04:04:02;;;;;;;9.90;5.10;;;-2.40;99.90;;;;;;2603770;54;20891;31
2023/02/05 04:06:37;;;;;;;9.65;5.25;;;-2.30;99.90;;;;;;2603590;54;20152;31
2023/02/05 04:09:12;;;;;;;13.23;7.07;;;-2.30;99.90;;;;;;2721008;39;20480;31
2023/02/05 04:11:47;;;;;;;15.40;7.18;;;-2.30;99.90;;;;;;2721223;39;21016;31
2023/02/05 04:14:25;;;;;;;20.73;8.98;;;-2.30;99.90;;;;;;2603673;54;20038;31
2023/02/05 04:17:00;;;;;;;;;;;-2.40;99.90;;;;;;2622351;46;20029;31
2023/02/05 04:19:40;;;;;;;15.55;7.97;;;-2.30;99.90;;;;;;2603558;54;20021;31
2023/02/05 04:22:16;;;;;;;18.10;7.97;;;-2.40;99.90;;;;;;2606456;46;20599;31
2023/02/05 04:24:53;;;;;;;13.10;6.85;;;-2.40;99.90;;;;;;2603697;54;19934;31
2023/02/05 04:27:28;;;;;;;13.00;5.60;;;-2.50;99.90;;;;;;2622304;46;20119;31
2023/02/05 04:30:08;;;;;;;8.25;4.97;;;-2.50;99.90;;;;;;2603465;54;20239;31
2023/02/05 04:32:47;;;;;;;10.55;4.97;;;-2.50;99.90;;;;;;2720666;39;20466;31
2023/02/05 04:35:26;;;;;;;9.25;4.55;;;-2.50;99.90;;;;;;2615921;46;20025;31
2023/02/05 04:38:01;;;;;;;8.00;4.38;;;-2.60;99.90;;;;;;2622200;46;20880;31
2023/02/05 04:40:35;;;;;;;8.10;4.32;;;-2.60;99.90;;;;;;2603610;54;20100;31
2023/02/05 04:43:13;;;;;;;9.70;4.90;;;-2.70;99.90;;;;;;2603503;54;20027;31
2023/02/05 04:45:47;;;;;;;9.23;4.97;;;-2.70;99.90;;;;;;2603821;54;20860;31
2023/02/05 04:48:22;;;;;;;9.55;5.65;;;-2.80;99.90;;;;;;2603566;54;20052;31
2023/02/05 04:51:00;;;;;;;9.65;5.43;;;-2.80;99.90;;;;;;2603722;54;20809;31
2023/02/05 04:53:34;;;;;;;11.55;5.25;;;-2.90;99.90;;;;;;2720407;39;20564;31
2023/02/05 04:56:10;;;;;;;10.93;5.77;;;-2.90;99.90;;;;;;2621915;46;20070;31
2023/02/05 04:58:45;;;;;;;10.93;6.47;;;-2.90;99.90;;;;;;2603487;54;20835;31
2023/02/05 05:01:20;;;;;;;9.75;5.35;;;-2.90;99.90;;;;;;2603636;54;20102;31
2023/02/05 05:03:55;;;;;;;14.00;6.45;;;-2.90;99.90;;;;;;2603644;54;20032;31
2023/02/05 05:06:32;;;;;;;15.32;8.48;;;-2.90;99.90;;;;;;2603825;54;20112;31
2023/02/05 05:09:07;;;;;;;9.70;5.40;;;-2.90;99.90;;;;;;2603750;54;20030;31
2023/02/05 05:11:42;;;;;;;14.25;5.97;;;-3.00;99.90;;;;;;2603517;54;20026;31
2023/02/05 05:14:16;;;;;;;11.90;6.70;;;-3.00;99.90;;;;;;2603513;54;20029;31
2023/02/05 05:16:51;;;;;;;10.55;6.15;;;-3.00;99.90;;;;;;2603528;54;20093;31
2023/02/05 05:19:25;;;;;;;9.70;5.57;;;-3.00;99.90;;;;;;2622324;46;20046;31
2023/02/05 05:22:02;;;;;;;9.25;4.97;;;-3.00;99.90;;;;;;2603293;54;20030;31
2023/02/05 05:24:37;;;;;;;10.80;6.00;;;-3.00;99.90;;;;;;2603577;54;20026;31
2023/02/05 05:27:11;;;;;;;11.32;6.47;;;-3.10;99.90;;;;;;2603506;54;20079;31
2023/02/05 05:29:46;;;;;;;10.65;6.75;;;-3.10;99.90;;;;;;2603414;54;20084;31
2023/02/05 05:32:21;;;;;;;8.30;4.75;;;-3.10;99.90;;;;;;2603636;54;20022;31
2023/02/05 05:34:56;;;;;;;9.55;5.22;;;-3.10;99.90;;;;;;2603399;54;20027;31
2023/02/05 05:37:33;;;;;;;10.35;5.30;;;-3.10;99.90;;;;;;2603300;54;20030;31
2023/02/05 05:45:45;;;;;;;10.45;5.45;;;-3.10;99.90;;;;;;2603530;54;20030;31
2023/02/05 05:48:20;;;;;;;8.98;5.22;;;-3.10;99.90;;;;;;2603283;54;20026;31
2023/02/05 05:50:54;;;;;;;8.65;4.95;;;;;;;;;;2603273;54;20967;31
2023/02/05 05:53:32;;;;;;;8.75;4.30;;;-3.10;99.90;;;;;;2621705;46;20038;31
2023/02/05 05:56:07;;;;;;;9.27;4.80;;;-3.20;99.90;;;;;;2603523;54;20048;31
2023/02/05 05:58:42;;;;;;;9.30;5.60;;;-3.20;99.90;;;;;;2603425;54;20906;31
2023/02/05 06:01:20;;;;;;;9.25;5.30;;;-3.20;99.90;;;;;;2603208;54;25149;31
2023/02/05 06:03:55;;;;;;;7.60;4.75;;;-3.20;99.90;;;;;;2603290;54;20037;31
2023/02/05 06:06:30;;;;;;;8.67;4.90;;;-3.30;99.90;;;;;;2603302;54;20886;31
2023/02/05 06:09:07;;;;;;;11.45;6.35;;;-3.50;99.90;;;;;;2603403;54;20363;31
2023/02/05 06:11:43;;;;;;;9.93;5.22;;;-3.40;99.90;;;;;;2621413;46;20104;31
2023/02/05 06:14:18;;;;;;;8.90;5.30;;;-3.20;99.90;;;;;;2603218;54;20585;31
2023/02/05 06:16:54;;;;;;;12.27;6.10;;;-3.50;99.90;;;;;;2621720;46;20960;31
2023/02/05 06:19:29;;;;;;;12.82;5.15;;;-3.50;99.90;;;;;;2621672;46;20026;31
2023/02/05 06:22:04;;;;;;;12.10;5.13;;;-3.50;99.90;;;;;;2603242;54;20032;31
2023/02/05 06:24:42;;;;;;;10.90;6.05;;;-3.60;99.90;;;;;;2621157;46;20026;31
2023/02/05 06:27:19;;;;;;;10.63;5.45;;;-3.50;99.90;;;;;;2603264;54;20143;31
2023/02/05 06:29:54;;;;;;;13.55;5.03;;;-3.50;99.90;;;;;;2603141;54;20031;31
2023/02/05 06:32:33;;;;;;;10.20;4.93;;;-3.70;99.90;;;;;;2603428;54;20062;31
2023/02/05 06:35:10;;;;;;;13.03;5.97;;;-3.70;99.90;;;;;;2603459;54;20871;31
2023/02/05 06:37:47;;;;;;;10.10;5.25;;;-3.70;99.90;;;;;;2603256;54;20301;31
2023/02/05 06:40:26;;;;;;;15.47;8.63;;;-3.70;99.90;;;;;;2603372;54;20850;31
2023/02/05 06:43:04;;;;;;;18.23;8.90;;;-3.70;99.90;;;;;;2603048;54;20042;31
2023/02/05 06:45:38;;;;;;;23.20;9.50;;;-3.70;99.90;;;;;;2603321;54;20026;31
2023/02/05 06:48:14;;;;;;;21.55;9.43;;;-3.80;99.90;;;;;;2603234;54;19934;31
2023/02/05 06:50:50;;;;;;;18.10;9.45;;;-3.80;99.90;;;;;;2603131;54;20848;31
2023/02/05 06:53:26;;;;;;;24.98;8.57;;;-3.80;99.90;;;;;;2621439;46;20030;31
2023/02/05 06:56:04;;;;;;;15.80;7.95;;;-3.80;99.90;;;;;;2603347;54;20027;31
2023/02/05 06:58:42;;;;;;;14.65;8.00;;;-3.80;99.90;;;;;;2603323;54;20033;31
2023/02/05 07:01:22;;;;;;;13.45;6.35;;;-3.90;99.90;;;;;;2603254;54;20070;31
2023/02/05 07:06:31;;;;;;;14.75;6.25;;;-3.80;99.90;;;;;;2603122;54;20085;31
2023/02/05 07:09:07;;;;;;;14.70;5.43;;;-3.80;99.90;;;;;;2621715;47;20042;31
2023/02/05 07:11:47;;;;;;;12.23;5.72;;;-3.80;99.90;;;;;;2603000;54;20834;31
2023/02/05 07:14:23;;;;;;;13.25;5.82;;;-3.80;99.90;;;;;;2602898;54;20030;31
2023/02/05 07:16:59;;;;;;;9.93;5.15;;;-3.80;99.90;;;;;;2621914;47;20030;31
2023/02/05 07:19:36;;;;;;;13.95;5.55;;;-3.70;99.90;;;;;;2616651;47;20900;31
2023/02/05 07:22:16;;;;;;;15.32;6.45;;;-3.70;99.90;;;;;;2603013;54;20981;31
2023/02/05 07:24:53;;;;;;;11.48;5.13;;;-3.50;99.90;;;;;;2602179;54;20030;31
2023/02/05 07:30:05;;;;;;;11.38;4.65;;;-2.40;99.90;;;;;;2603001;54;20901;31
2023/02/05 07:32:41;;;;;;;10.73;4.70;;;-1.70;99.90;;;;;;2602146;54;20026;31
2023/02/05 07:35:19;;;;;;;10.13;4.97;;;-1.00;99.90;;;;;;2603207;54;20098;31
2023/02/05 07:37:55;;;;;;;12.27;5.22;;;-0.40;99.90;;;;;;2603056;54;20061;31
2023/02/05 07:40:34;;;;;;;8.35;4.57;;;0.20;99.90;;;;;;2621486;47;20085;31
2023/02/05 07:43:13;;;;;;;14.05;5.35;;;0.90;99.90;;;;;;2602808;54;20093;31
2023/02/05 07:45:57;;;;;;;10.52;5.50;;;1.40;99.90;;;;;;2603128;54;20949;31
2023/02/05 07:48:32;;;;;;;9.52;4.70;;;1.80;99.90;;;;;;2602622;54;20046;31
2023/02/05 07:51:23;;;;;;;14.38;5.93;;;2.20;99.90;;;;;;2602659;54;20894;31
2023/02/05 07:54:09;;;;;;;12.70;5.00;;;2.60;99.90;;;;;;2621382;47;20034;31
2023/02/05 07:56:44;;;;;;;8.57;4.78;;;3.00;99.90;;;;;;2602561;54;20912;31
2023/02/05 07:59:23;;;;;;;11.70;5.70;;;3.30;99.90;;;;;;2621543;47;19934;31
2023/02/05 08:02:05;;;;;;;10.25;5.10;;;3.60;99.90;;;;;;2602009;54;20034;31
2023/02/05 08:04:41;;;;;;;10.98;5.93;;;3.80;99.90;;;;;;2603454;54;20035;31
2023/02/05 08:07:23;;;;;;;11.20;5.75;;;4.00;99.90;;;;;;2603599;54;20034;31
2023/02/05 08:09:59;;;;;;;12.52;5.70;;;4.10;99.90;;;;;;2622268;46;20037;31
2023/02/05 08:12:36;;;;;;;12.95;6.25;;;4.30;99.90;;;;;;2603766;54;20030;31
2023/02/05 08:15:11;;;;;;;14.40;7.10;;;4.50;99.90;;;;;;2603420;54;20830;31
2023/02/05 08:17:50;;;;;;;15.70;6.57;;;4.60;99.90;;;;;;2603807;54;20029;31
2023/02/05 08:20:27;;;;;;;17.57;7.83;;;4.70;99.90;;;;;;2603980;54;20037;31
2023/02/05 08:23:04;;;;;;;17.10;9.30;;;4.90;99.90;;;;;;2603673;54;20305;31
2023/02/05 08:25:39;;;;;;;21.00;9.00;;;5.00;99.90;;;;;;2621922;46;20826;31
2023/02/05 08:28:16;;;;;;;18.40;8.15;;;5.10;99.90;;;;;;2603608;54;20761;31
2023/02/05 08:30:57;;;;;;;14.70;6.45;;;5.30;99.90;;;;;;2613381;46;20026;31
2023/02/05 08:33:37;;;;;;;16.95;8.38;;;5.40;99.90;;;;;;2603546;54;20027;31
2023/02/05 08:36:17;;;;;;;10.97;5.70;;;5.70;99.90;;;;;;2602858;54;20902;31
2023/02/05 08:39:00;;;;;;;12.27;5.90;;;5.80;99.90;;;;;;2602676;54;21230;31
2023/02/05 08:41:37;;;;;;;9.80;6.38;;;6.00;99.90;;;;;;2603799;54;20799;31
2023/02/05 08:44:15;;;;;;;10.60;7.05;;;5.90;99.90;;;;;;2621953;46;20026;31
2023/02/05 08:46:52;;;;;;;16.20;8.15;;;5.70;99.90;;;;;;2603427;54;20022;31
2023/02/05 08:49:31;;;;;;;13.00;6.93;;;5.60;99.90;;;;;;2603709;54;20053;31
2023/02/05 08:52:09;;;;;;;12.10;5.90;;;5.40;99.90;;;;;;2621915;46;20113;31
2023/02/05 08:54:51;;;;;;;13.30;7.50;;;5.50;99.90;;;;;;2603484;54;20128;31
2023/02/05 08:57:31;;;;;;;10.02;5.82;;;5.60;99.90;;;;;;2603350;54;20788;31
2023/02/05 09:00:10;;;;;;;13.75;8.25;;;5.50;99.90;;;;;;2622160;46;20089;31
2023/02/05 09:05:26;;;;;;;11.75;6.32;;;6.00;99.90;;;;;;2603448;54;20243;31
2023/02/05 09:08:06;;;;;;;9.68;6.20;;;6.00;99.90;;;;;;2603494;54;20030;31
2023/02/05 09:10:48;;;;;;;13.02;7.28;;;6.20;99.90;;;;;;2621977;46;20113;31
2023/02/05 09:16:06;;;;;;;8.20;5.45;;;6.10;99.90;;;;;;2603497;54;20737;31
2023/02/05 09:18:45;;;;;;;7.05;4.65;;;6.10;99.90;;;;;;2603555;54;20029;31
2023/02/05 09:21:30;;;;;;;8.32;5.07;;;6.20;99.90;;;;;;2603417;54;20023;31
2023/02/05 09:24:24;;;;;;;12.15;6.60;;;6.30;99.90;;;;;;2603587;54;20048;31
2023/02/05 09:27:04;;;;;;;9.75;6.30;;;6.50;99.90;;;;;;2603359;54;20046;31
2023/02/05 09:29:43;;;;;;;15.70;8.60;;;6.70;99.90;;;;;;2603360;54;20038;31
2023/02/05 09:32:25;;;;;;;8.57;6.13;;;6.70;99.90;;;;;;2603326;54;20912;31
2023/02/05 09:35:03;;;;;;;11.15;6.38;;;6.60;99.90;;;;;;2603213;54;20030;31
2023/02/05 09:37:46;;;;;;;10.00;6.00;;;6.40;99.90;;;;;;2603324;54;21450;31
2023/02/05 09:40:34;;;;;;;9.25;5.75;;;6.30;99.90;;;;;;2603519;54;20875;31
2023/02/05 09:43:24;;;;;;;10.32;5.95;;;6.30;99.90;;;;;;2603369;54;20026;31
2023/02/05 09:46:04;;;;;;;7.03;3.97;;;6.10;99.90;;;;;;2603285;54;20049;31
2023/02/05 09:48:49;;;;;;;18.67;9.15;;;5.70;99.90;;;;;;2603451;46;20246;31
2023/02/05 09:51:34;;;;;;;16.45;9.35;;;5.30;99.90;;;;;;2707021;39;20501;31
2023/02/05 09:54:20;;;;;;;13.73;9.13;;;5.00;99.90;;;;;;2603264;54;20093;31
2023/02/05 09:57:01;;;;;;;7.55;4.43;;;5.20;99.90;;;;;;2621690;46;20552;31
2023/02/05 09:59:57;;;;;;;8.70;5.00;;;5.10;99.90;;;;;;2603271;54;20022;31
2023/02/05 10:02:39;;;;;;;10.52;7.68;;;5.00;99.90;;;;;;2603313;54;20844;31
2023/02/05 10:05:15;;;;;;;9.50;5.30;;;4.80;99.90;;;;;;2602488;54;20885;31
2023/02/05 10:07:59;;;;;;;8.43;4.63;;;4.50;99.90;;;;;;2603139;54;20847;31
2023/02/05 10:10:37;;;;;;;7.78;4.63;;;4.20;99.90;;;;;;2603231;54;20053;31
2023/02/05 10:13:48;;;;;;;7.20;4.50;;;3.70;99.90;;;;;;2621451;46;20489;31
2023/02/05 10:16:43;;;;;;;9.45;6.85;;;3.40;99.90;;;;;;2603371;54;20744;31
2023/02/05 10:19:47;;;;;;;16.05;8.38;;;3.20;99.90;;;;;;2719954;39;20474;31
2023/02/05 10:22:30;;;;;;;10.70;5.85;;;3.20;99.90;;;;;;2603073;54;20785;31
2023/02/05 10:25:43;;;;;;;5.72;3.25;;;3.00;99.90;;;;;;2602361;47;20104;31
2023/02/05 10:28:48;;;;;;;11.75;7.50;;;2.70;99.90;;;;;;2603332;54;20873;31
2023/02/05 10:31:30;;;;;;;25.08;14.35;;;2.50;99.90;;;;;;2603163;54;20036;31
2023/02/05 10:34:28;;;;;;;7.30;4.35;;;2.30;99.90;;;;;;2603169;54;20740;31
2023/02/05 10:37:06;;;;;;;3.17;1.73;;;2.10;99.90;;;;;;2603153;54;20927;31
2023/02/05 10:39:45;;;;;;;5.75;2.75;;;2.00;99.90;;;;;;2603193;54;20320;31
2023/02/05 10:42:19;;;;;;;6.10;3.65;;;2.00;99.90;;;;;;2603292;54;20600;31
2023/02/05 10:45:00;;;;;;;10.07;5.60;;;1.90;99.90;;;;;;2621536;46;20867;31
2023/02/05 10:47:41;;;;;;;5.65;3.30;;;1.80;99.90;;;;;;2603246;54;20919;31
2023/02/05 10:50:38;;;;;;;4.60;2.08;;;1.70;99.90;;;;;;2603129;54;20034;31
2023/02/05 10:53:21;;;;;;;51.35;28.25;;;1.60;99.90;;;;;;2603322;54;20026;31
2023/02/05 10:55:56;;;;;;;104.13;46.67;;;1.60;99.90;;;;;;2603098;54;20247;31
2023/02/05 10:58:40;;;;;;;148.30;48.78;;;1.50;99.90;;;;;;2621720;46;20067;31
2023/02/05 11:03:55;;;;;;;7.50;3.30;;;1.40;99.90;;;;;;2603058;54;20580;31
2023/02/05 11:12:50;;;;;;;5.10;2.00;;;1.60;99.90;;;;;;2602721;54;20022;31
2023/02/05 11:15:29;;;;;;;3.50;1.48;;;1.70;99.90;;;;;;2621686;47;20037;31
2023/02/05 11:18:08;;;;;;;4.80;2.08;;;1.70;99.90;;;;;;2621521;47;20849;31
2023/02/05 11:20:56;;;;;;;3.72;1.70;;;1.70;99.90;;;;;;2603087;54;20030;31
2023/02/05 11:26:21;;;;;;;3.58;1.88;;;1.80;99.90;;;;;;2602360;54;20115;31
2023/02/05 11:29:03;;;;;;;3.83;1.90;;;1.70;99.90;;;;;;2602030;54;20612;31
2023/02/05 11:31:47;;;;;;;4.82;2.70;;;1.70;99.90;;;;;;2601889;54;20041;31
2023/02/05 11:34:25;;;;;;;4.82;2.08;;;1.60;99.90;;;;;;2602868;54;20061;31
2023/02/05 11:39:38;;;;;;;4.85;2.20;;;1.60;99.90;;;;;;2622187;47;20103;31
2023/02/05 11:42:18;;;;;;;6.50;2.60;;;1.60;99.90;;;;;;2603914;54;20796;31
2023/02/05 11:44:52;;;;;;;5.07;2.30;;;1.60;99.90;;;;;;2702167;39;20481;31
2023/02/05 11:47:32;;;;;;;3.00;1.85;;;1.50;99.90;;;;;;2622252;46;20037;31
2023/02/05 11:50:08;;;;;;;4.10;2.15;;;1.50;99.90;;;;;;2622348;46;20057;31
2023/02/05 11:52:47;;;;;;;4.30;2.30;;;1.50;99.90;;;;;;2773860;31;20603;31
2023/02/05 11:55:28;;;;;;;5.88;2.47;;;1.50;99.90;;;;;;2622191;46;19946;31
2023/02/05 11:58:02;;;;;;;5.28;2.72;;;1.60;99.90;;;;;;2603602;54;20136;31
2023/02/05 12:00:39;;;;;;;3.85;2.25;;;1.60;99.90;;;;;;2603682;54;20038;31
2023/02/05 12:03:20;;;;;;;3.78;2.10;;;1.60;99.90;;;;;;2603672;54;20100;31
2023/02/05 12:06:03;;;;;;;4.65;2.10;;;1.60;99.90;;;;;;2603831;54;20100;31
2023/02/05 12:08:41;;;;;;;4.07;2.17;;;1.50;99.90;;;;;;2603781;54;20022;31
2023/02/05 12:11:30;;;;;;;4.15;2.15;;;1.60;99.90;;;;;;2603775;54;20771;31
2023/02/05 12:14:09;;;;;;;5.50;2.50;;;1.70;99.90;;;;;;2622073;46;20881;31
2023/02/05 12:19:24;;;;;;;5.65;2.33;;;1.70;99.90;;;;;;2603758;54;20056;31
2023/02/05 12:22:15;;;;;;;4.80;2.03;;;1.80;99.90;;;;;;2602799;54;20899;31
2023/02/05 12:25:01;;;;;;;4.88;2.20;;;1.80;99.90;;;;;;2603093;54;20867;31
2023/02/05 12:27:42;;;;;;;3.10;1.80;;;1.80;99.90;;;;;;2622248;46;19938;31
2023/02/05 12:30:28;;;;;;;4.97;2.65;;;1.80;99.90;;;;;;2622010;46;20034;31
2023/02/05 12:33:02;;;;;;;4.07;2.50;;;1.70;99.90;;;;;;2603532;54;20760;31
2023/02/05 12:35:49;;;;;;;4.60;2.47;;;1.70;99.90;;;;;;2603646;54;20027;31
2023/02/05 12:38:35;;;;;;;4.65;2.67;;;1.70;99.90;;;;;;2622080;46;20653;31
2023/02/05 12:41:25;;;;;;;5.35;2.50;;;1.80;99.90;;;;;;2603836;54;19942;31
2023/02/05 12:44:05;;;;;;;9.15;2.40;;;1.80;99.90;;;;;;2622031;46;20108;31
2023/02/05 12:46:52;;;;;;;4.93;3.07;;;1.80;99.90;;;;;;2603523;54;20026;31
2023/02/05 12:49:39;;;;;;;6.95;3.83;;;1.80;99.90;;;;;;2603405;54;20037;31
2023/02/05 12:52:29;;;;;;;7.25;3.90;;;1.70;99.90;;;;;;2603485;54;20038;31
2023/02/05 12:55:14;;;;;;;7.78;3.55;;;1.70;99.90;;;;;;2603557;54;20062;31
2023/02/05 12:57:56;;;;;;;10.65;6.05;;;1.60;99.90;;;;;;2603486;54;20870;31
2023/02/05 13:00:46;;;;;;;15.20;7.70;;;1.70;99.90;;;;;;2615684;46;20030;31
2023/02/05 13:03:44;;;;;;;11.73;5.13;;;1.60;99.90;;;;;;2603284;54;20108;31
2023/02/05 13:07:24;;;;;;;;;;;;;;;;;;;;;
2023/02/05 13:10:41;;;;;;;5.85;2.40;;;1.50;99.90;;;;;;2603441;54;20774;31
2023/02/05 13:16:55;;;;;;;5.17;1.77;;;1.40;99.90;;;;;;2603518;54;20890;31
2023/02/05 13:19:38;;;;;;;43.05;18.02;;;1.40;99.90;;;;;;2603522;54;20990;31
2023/02/05 13:31:47;;;;;;;4.38;1.38;;;1.40;99.90;;;;;;2603230;54;20578;31
2023/02/05 13:37:38;;;;;;;5.60;2.55;;;1.30;99.90;;;;;;2603550;54;20026;31
2023/02/05 13:49:11;;;;;;;6.30;3.47;;;1.20;99.90;;;;;;2701903;39;20481;31
2023/02/05 13:55:25;;;;;;;6.97;3.80;;;1.20;99.90;;;;;;2602590;54;20335;31
2023/02/05 14:17:21;;;;;;;7.90;4.20;;;1.10;99.90;;;;;;2603500;54;20824;31
2023/02/05 14:26:46;;;;;;;7.50;3.55;;;1.10;99.90;;;;;;2603170;54;20022;31
2023/02/05 14:30:09;;;;;;;7.93;4.15;;;1.10;99.90;;;;;;2701927;39;20452;31
2023/02/05 14:42:38;;;;;;;5.95;3.58;;;1.00;99.90;;;;;;2603088;54;20104;31
2023/02/05 14:45:40;;;;;;;8.90;4.10;;;1.00;99.90;;;;;;2602856;54;20026;31
2023/02/05 15:00:40;;;;;;;10.00;4.35;;;0.90;99.90;;;;;;2620779;46;20053;31
2023/02/05 15:03:41;;;;;;;12.85;6.50;;;0.90;99.90;;;;;;2602311;54;20875;31
2023/02/05 15:06:36;;;;;;;;;;;;;;;;;;;;;
2023/02/05 15:12:47;;;;;;;10.20;4.85;;;1.00;99.90;;;;;;2603456;54;20027;31
2023/02/05 15:18:37;;;;;;;11.35;6.45;;;0.90;99.90;;;;;;2602988;54;20034;31
2023/02/05 15:21:37;;;;;;;10.48;5.32;;;0.80;99.90;;;;;;2602912;54;20588;31
2023/02/05 15:24:32;;;;;;;14.10;6.95;;;0.90;99.90;;;;;;2605869;46;20910;31
2023/02/05 16:17:19;;;;;;;14.18;7.85;;;0.10;99.90;;;;;;2601301;54;20969;31
2023/02/05 16:41:48;;;;;;;24.73;11.65;;;-0.30;99.90;;;;;;2631408;54;20030;-96
2023/02/05 16:48:24;;;;;;;32.83;14.43;;;-0.50;99.90;;;;;;2602932;54;20100;31
2023/02/05 16:51:01;;;;;;;29.02;13.68;;;-0.60;99.90;;;;;;2603511;54;20574;31
2023/02/05 16:53:35;;;;;;;27.23;13.23;;;-0.60;99.90;;;;;;2603648;54;20831;31
2023/02/05 16:56:14;;;;;;;28.77;13.90;;;-0.70;99.90;;;;;;2621844;46;20022;31
2023/02/05 16:58:56;;;;;;;31.48;14.32;;;-0.80;99.90;;;;;;2603726;54;20504;31
2023/02/05 17:01:39;;;;;;;26.80;13.60;;;-0.80;99.90;;;;;;2603450;54;20030;31
2023/02/05 17:07:53;;;;;;;26.35;13.50;;;-0.90;99.90;;;;;;2603352;54;20022;31
2023/02/05 17:10:28;;;;;;;28.38;13.85;;;-1.00;99.90;;;;;;2621708;46;20034;31
2023/02/05 17:13:04;;;;;;;31.88;15.02;;;-1.00;99.90;;;;;;2603189;54;20152;31
2023/02/05 17:15:46;;;;;;;27.50;14.95;;;-1.10;99.90;;;;;;2622222;46;20026;31
2023/02/05 17:18:24;;;;;;;30.45;14.95;;;-1.20;99.90;;;;;;2603727;54;20089;31